Loos, Canada
Current Conditions -  °F | °C
As of 5:00 PM on Tuesday 21 Oct 2014 (Local Time) from CYXS Reporting Station
Broken Clouds Broken Clouds  
Wind Chill: 55°   Ceiling: 13000
Heat Index: 55°   Visibility: 9mi
Dew Point: 37°   Wind: 15mph
Humidity: 51%   Direction: 170°S
Pressure: 29.54"   Gusts: 25mph
Location:  53.6°N, 120.72°W
Report Text: CYXS 220000Z AUTO 17013G22KT 9SM SCT095 BKN130 13/03 A2954 RMK SLP018 DENSITY ALT 2900FT
Loading
Personal Weather Stations






























Interactive Weather Map New forecast layout! Learn more

10-Day Weather Forecast

Advertisements
Track Severe Weather on mobile